createdAt,value
2018-11-13T00:00:40.920Z,91.70
2018-11-13T00:03:12.842Z,91.58
2018-11-13T00:05:43.532Z,92.17
2018-11-13T00:08:15.208Z,93.62
2018-11-13T00:10:44.965Z,94.22
2018-11-13T00:13:16.659Z,94.16
2018-11-13T00:15:48.100Z,94.36
2018-11-13T00:18:19.051Z,94.57
2018-11-13T00:20:48.580Z,93.94
2018-11-13T00:23:18.591Z,93.45
2018-11-13T00:25:49.409Z,93.60
2018-11-13T00:28:20.654Z,93.36
2018-11-13T00:30:50.420Z,95.13
2018-11-13T00:33:21.143Z,95.26
2018-11-13T00:35:50.914Z,94.07
2018-11-13T00:38:21.640Z,92.04
2018-11-13T00:40:51.051Z,91.98
2018-11-13T00:43:20.858Z,91.57
2018-11-13T00:45:57.069Z,92.32
2018-11-13T00:48:29.065Z,91.98
2018-11-13T00:51:00.670Z,91.83
2018-11-13T00:53:31.363Z,92.07
2018-11-13T00:56:01.139Z,92.31
2018-11-13T00:58:30.757Z,92.21
2018-11-13T01:01:00.326Z,92.37
2018-11-13T01:03:31.059Z,93.41
2018-11-13T01:06:00.570Z,93.55
2018-11-13T01:08:30.407Z,94.64
2018-11-13T01:11:04.205Z,94.60
2018-11-13T01:13:38.935Z,93.88
2018-11-13T01:16:09.457Z,93.75
2018-11-13T01:18:39.272Z,93.10
2018-11-13T01:21:09.777Z,92.33
2018-11-13T01:23:40.342Z,91.68
2018-11-13T01:26:11.993Z,91.69
2018-11-13T01:28:42.753Z,91.24
2018-11-13T01:31:18.027Z,91.23
2018-11-13T01:33:50.127Z,90.93
2018-11-13T01:36:19.691Z,90.76
2018-11-13T01:38:51.267Z,90.67
2018-11-13T01:41:21.772Z,91.17
2018-11-13T01:43:56.102Z,91.10
2018-11-13T01:46:29.809Z,91.79
2018-11-13T01:49:00.661Z,91.41
2018-11-13T01:51:36.163Z,91.56
2018-11-13T01:54:07.531Z,91.78
2018-11-13T01:56:37.251Z,91.95
2018-11-13T01:59:07.402Z,91.83
2018-11-13T02:01:36.909Z,92.90
2018-11-13T02:04:08.496Z,92.58
2018-11-13T02:06:38.232Z,92.10
2018-11-13T02:09:10.577Z,91.84
2018-11-13T02:11:41.615Z,91.71
2018-11-13T02:14:16.996Z,92.07
2018-11-13T02:16:46.575Z,92.56
2018-11-13T02:19:16.232Z,92.35
2018-11-13T02:21:45.739Z,91.88
2018-11-13T02:24:15.271Z,91.35
2018-11-13T02:26:44.774Z,91.59
2018-11-13T02:29:15.429Z,91.43
2018-11-13T02:31:45.765Z,91.40
2018-11-13T02:34:19.095Z,91.83
2018-11-13T02:36:50.735Z,91.45
2018-11-13T02:39:20.620Z,91.82
2018-11-13T02:41:51.057Z,91.75
2018-11-13T02:44:26.116Z,91.81
2018-11-13T02:46:56.792Z,91.70
2018-11-13T02:49:26.571Z,91.50
2018-11-13T02:51:56.099Z,91.78
2018-11-13T02:54:26.795Z,92.02
2018-11-13T02:56:56.223Z,91.78
2018-11-13T02:59:25.798Z,92.45
2018-11-13T03:01:56.335Z,92.14
2018-11-13T03:04:27.204Z,92.55
2018-11-13T03:06:57.885Z,92.69
2018-11-13T03:09:28.810Z,91.84
2018-11-13T03:11:59.538Z,92.20
2018-11-13T03:14:29.394Z,92.38
2018-11-13T03:17:02.612Z,92.41
2018-11-13T03:19:33.764Z,93.18
2018-11-13T03:22:03.378Z,92.80
2018-11-13T03:24:35.696Z,92.64
2018-11-13T03:27:05.134Z,92.16
2018-11-13T03:29:34.878Z,91.97
2018-11-13T03:32:04.417Z,92.29
2018-11-13T03:34:35.046Z,93.19
2018-11-13T03:37:04.824Z,92.89
2018-11-13T03:39:35.536Z,92.51
2018-11-13T03:42:06.574Z,92.13
2018-11-13T03:44:37.432Z,92.87
2018-11-13T03:47:07.386Z,92.63
2018-11-13T03:49:37.914Z,92.19
2018-11-13T03:52:07.540Z,92.39
2018-11-13T03:54:37.235Z,92.59
2018-11-13T03:57:06.758Z,93.30
2018-11-13T03:59:37.457Z,93.41
2018-11-13T04:02:07.267Z,93.21
2018-11-13T04:04:36.976Z,92.92
2018-11-13T04:07:06.754Z,92.35
2018-11-13T04:09:37.533Z,93.41
2018-11-13T04:12:06.929Z,93.44
2018-11-13T04:14:39.609Z,93.53
2018-11-13T04:17:13.494Z,93.25
2018-11-13T04:19:45.136Z,93.61
2018-11-13T04:22:14.573Z,93.66
2018-11-13T04:24:44.018Z,93.16
2018-11-13T04:27:14.538Z,93.21
2018-11-13T04:29:49.578Z,93.03
2018-11-13T04:32:19.260Z,92.48
2018-11-13T04:34:50.121Z,92.57
2018-11-13T04:37:19.895Z,92.39
2018-11-13T04:39:54.982Z,92.38
2018-11-13T04:42:26.603Z,93.00
2018-11-13T04:44:59.559Z,93.38
2018-11-13T04:47:29.120Z,92.87
2018-11-13T04:49:58.574Z,93.00
2018-11-13T04:52:27.996Z,93.03
2018-11-13T04:54:57.456Z,93.70
2018-11-13T04:57:26.835Z,93.54
2018-11-13T04:59:56.521Z,93.09
2018-11-13T05:02:26.123Z,92.77
2018-11-13T05:04:55.836Z,92.19
2018-11-13T05:07:25.308Z,92.37
2018-11-13T05:09:54.821Z,92.55
2018-11-13T05:12:24.285Z,92.67
2018-11-13T05:14:54.339Z,92.98
2018-11-13T05:17:24.049Z,93.03
2018-11-13T05:19:53.639Z,92.79
2018-11-13T05:22:23.248Z,93.11
2018-11-13T05:24:53.003Z,93.38
2018-11-13T05:27:22.589Z,94.59
2018-11-13T05:29:52.184Z,94.38
2018-11-13T05:32:21.642Z,94.08
2018-11-13T05:34:51.103Z,93.96
2018-11-13T05:37:20.589Z,93.93
2018-11-13T05:39:50.560Z,94.08
2018-11-13T05:42:20.014Z,94.04
2018-11-13T05:44:49.885Z,93.91
2018-11-13T05:47:19.303Z,93.89
2018-11-13T05:49:49.022Z,93.96
2018-11-13T05:52:18.519Z,93.97
2018-11-13T05:54:48.203Z,93.91
2018-11-13T05:57:18.707Z,94.07
2018-11-13T05:59:48.370Z,94.52
2018-11-13T06:02:17.859Z,94.48
2018-11-13T06:04:47.549Z,94.43
2018-11-13T06:07:17.305Z,94.42
2018-11-13T06:09:47.083Z,94.61
2018-11-13T06:12:17.458Z,94.71
2018-11-13T06:14:48.606Z,94.46
2018-11-13T06:17:19.711Z,94.69
2018-11-13T06:19:49.309Z,94.41
2018-11-13T06:22:19.130Z,94.50
2018-11-13T06:24:48.827Z,94.51
2018-11-13T06:27:18.628Z,94.30
2018-11-13T06:29:48.203Z,94.50
2018-11-13T06:32:17.784Z,94.34
2018-11-13T06:34:47.562Z,94.68
2018-11-13T06:37:17.021Z,94.62
2018-11-13T06:39:46.761Z,94.46
2018-11-13T06:42:16.371Z,94.37
2018-11-13T06:44:45.921Z,93.99
2018-11-13T06:47:15.366Z,94.11
2018-11-13T06:49:44.807Z,93.87
2018-11-13T06:52:14.263Z,93.76
2018-11-13T06:54:59.259Z,93.73
2018-11-13T06:57:29.190Z,93.45
2018-11-13T06:59:58.909Z,93.94
2018-11-13T07:02:28.343Z,93.80
2018-11-13T07:04:58.485Z,93.73
2018-11-13T07:07:27.789Z,94.14
2018-11-13T07:09:57.664Z,94.34
2018-11-13T07:12:27.090Z,94.42
2018-11-13T07:14:56.581Z,94.72
2018-11-13T07:17:26.270Z,94.63
2018-11-13T07:19:56.026Z,94.40
2018-11-13T07:22:25.741Z,94.59
2018-11-13T07:24:55.262Z,94.82
2018-11-13T07:27:24.669Z,94.71
2018-11-13T07:29:54.103Z,94.81
2018-11-13T07:32:23.529Z,95.04
2018-11-13T07:34:53.026Z,95.21
2018-11-13T07:37:22.430Z,95.62
2018-11-13T07:39:51.965Z,95.47
2018-11-13T07:42:21.968Z,95.17
2018-11-13T07:44:51.491Z,95.25
2018-11-13T07:47:21.090Z,95.30
2018-11-13T07:49:50.546Z,95.74
2018-11-13T07:52:20.209Z,95.82
2018-11-13T07:54:49.707Z,95.16
2018-11-13T07:57:19.226Z,94.97
2018-11-13T07:59:49.809Z,95.20
2018-11-13T08:02:19.371Z,95.12
2018-11-13T08:04:50.271Z,95.30
2018-11-13T08:07:19.896Z,96.15
2018-11-13T08:09:50.371Z,96.02
2018-11-13T08:12:20.023Z,96.27
2018-11-13T08:14:49.469Z,95.53
2018-11-13T08:17:18.905Z,93.89
2018-11-13T08:19:48.530Z,94.02
2018-11-13T08:22:18.212Z,93.61
2018-11-13T08:24:47.890Z,94.48
2018-11-13T08:27:17.483Z,94.61
2018-11-13T08:29:47.091Z,95.65
2018-11-13T08:32:16.830Z,93.38
2018-11-13T08:34:46.429Z,90.89
2018-11-13T08:37:16.072Z,87.94
2018-11-13T08:39:45.827Z,88.00
2018-11-13T08:42:15.345Z,85.16
2018-11-13T08:44:44.966Z,86.73
2018-11-13T08:47:14.486Z,86.32
2018-11-13T08:49:44.042Z,84.19
2018-11-13T08:52:13.806Z,84.21
2018-11-13T08:54:43.383Z,84.78
2018-11-13T08:57:12.846Z,85.20
2018-11-13T08:59:42.584Z,83.46
2018-11-13T09:02:12.206Z,84.91
2018-11-13T09:04:41.806Z,87.63
2018-11-13T09:07:11.544Z,80.33
2018-11-13T09:09:40.986Z,82.07
2018-11-13T09:12:10.541Z,80.31
2018-11-13T09:14:39.947Z,82.75
2018-11-13T09:17:09.717Z,75.64
2018-11-13T09:19:39.556Z,77.37
2018-11-13T09:22:09.468Z,79.31
2018-11-13T09:24:38.912Z,75.06
2018-11-13T09:27:08.984Z,74.30
2018-11-13T09:29:38.526Z,79.08
2018-11-13T09:32:08.849Z,79.68
2018-11-13T09:34:38.386Z,79.92
2018-11-13T09:37:08.052Z,77.26
2018-11-13T09:39:37.492Z,77.56
2018-11-13T09:42:07.284Z,79.29
2018-11-13T09:44:36.774Z,75.85
2018-11-13T09:47:06.646Z,79.65
2018-11-13T09:49:36.185Z,75.56
2018-11-13T09:52:06.366Z,75.89
2018-11-13T09:54:35.729Z,76.05
2018-11-13T09:57:05.547Z,77.53
2018-11-13T09:59:34.919Z,72.13
2018-11-13T10:02:05.008Z,72.06
2018-11-13T10:04:34.739Z,75.62
2018-11-13T10:07:03.886Z,74.07
2018-11-13T10:09:33.624Z,75.89
2018-11-13T10:12:03.403Z,76.10
2018-11-13T10:14:33.124Z,73.34
2018-11-13T10:17:02.666Z,71.78
2018-11-13T10:19:32.350Z,71.33
2018-11-13T10:22:02.106Z,70.97
2018-11-13T10:24:31.582Z,70.01
2018-11-13T10:27:01.181Z,67.94
2018-11-13T10:29:30.758Z,67.99
2018-11-13T10:32:00.372Z,67.12
2018-11-13T10:34:30.669Z,66.91
2018-11-13T10:37:00.705Z,67.21
2018-11-13T10:39:30.130Z,68.66
2018-11-13T10:41:59.622Z,68.79
2018-11-13T10:44:29.103Z,66.61
2018-11-13T10:46:58.748Z,67.08
2018-11-13T10:49:28.186Z,65.39
2018-11-13T10:51:57.628Z,64.14
2018-11-13T10:54:27.228Z,64.82
2018-11-13T10:56:56.825Z,64.02
2018-11-13T10:59:26.287Z,64.70
2018-11-13T11:01:59.871Z,65.62
2018-11-13T11:04:34.247Z,64.81
2018-11-13T11:07:03.886Z,61.83
2018-11-13T11:09:33.409Z,62.66
2018-11-13T11:12:03.072Z,62.56
2018-11-13T11:14:32.592Z,62.05
2018-11-13T11:17:02.475Z,61.00
2018-11-13T11:19:33.048Z,61.04
2018-11-13T11:22:03.441Z,60.12
2018-11-13T11:24:33.969Z,58.93
2018-11-13T11:27:03.563Z,57.19
2018-11-13T11:29:33.329Z,57.66
2018-11-13T11:32:03.056Z,58.28
2018-11-13T11:34:32.626Z,59.75
2018-11-13T11:37:02.265Z,58.13
2018-11-13T11:39:31.810Z,56.44
2018-11-13T11:42:01.486Z,57.46
2018-11-13T11:44:30.994Z,57.53
2018-11-13T11:47:00.589Z,58.89
2018-11-13T11:49:30.115Z,60.63
2018-11-13T11:51:59.873Z,61.89
2018-11-13T11:54:29.629Z,62.44
2018-11-13T11:56:59.396Z,63.27
2018-11-13T11:59:28.992Z,64.28
2018-11-13T12:01:58.664Z,65.70
2018-11-13T12:04:28.067Z,65.35
2018-11-13T12:06:57.789Z,66.11
2018-11-13T12:09:27.240Z,66.13
2018-11-13T12:11:57.023Z,65.85
2018-11-13T12:14:26.766Z,65.35
2018-11-13T12:16:56.216Z,65.39
2018-11-13T12:19:25.691Z,65.31
2018-11-13T12:21:55.408Z,64.45
2018-11-13T12:24:25.013Z,64.36
2018-11-13T12:26:54.683Z,63.78
2018-11-13T12:29:24.204Z,65.01
2018-11-13T12:31:53.816Z,65.74
2018-11-13T12:34:23.484Z,65.73
2018-11-13T12:36:52.985Z,65.83
2018-11-13T12:39:22.433Z,65.72
2018-11-13T12:41:51.934Z,66.49
2018-11-13T12:44:21.490Z,66.10
2018-11-13T12:46:51.190Z,65.21
2018-11-13T12:49:20.914Z,65.42
2018-11-13T12:51:56.036Z,64.84
2018-11-13T12:54:26.401Z,65.34
2018-11-13T12:56:56.216Z,63.93
2018-11-13T12:59:25.642Z,63.99
2018-11-13T13:01:55.393Z,63.58
2018-11-13T13:04:24.874Z,64.77
2018-11-13T13:06:54.630Z,65.16
2018-11-13T13:09:24.132Z,65.28
2018-11-13T13:11:53.793Z,64.86
2018-11-13T13:14:23.287Z,65.29
2018-11-13T13:16:52.859Z,65.79
2018-11-13T13:19:22.437Z,66.79
2018-11-13T13:21:52.412Z,66.75
2018-11-13T13:24:22.116Z,64.93
2018-11-13T13:26:51.725Z,65.61
2018-11-13T13:29:21.233Z,66.36
2018-11-13T13:31:52.182Z,66.25
2018-11-13T13:34:21.806Z,65.83
2018-11-13T13:36:51.424Z,66.66
2018-11-13T13:39:21.169Z,66.84
2018-11-13T13:41:50.680Z,67.23
2018-11-13T13:44:20.163Z,66.54
2018-11-13T13:46:49.755Z,66.71
2018-11-13T13:49:19.419Z,67.71
2018-11-13T13:51:49.099Z,67.15
2018-11-13T13:54:18.797Z,68.25
2018-11-13T13:56:48.689Z,67.79
2018-11-13T13:59:18.281Z,68.04
2018-11-13T14:01:47.947Z,67.39
2018-11-13T14:04:17.551Z,68.03
2018-11-13T14:06:47.080Z,69.14
2018-11-13T14:09:16.563Z,69.00
2018-11-13T14:11:46.757Z,69.60
2018-11-13T14:14:16.363Z,70.31
2018-11-13T14:16:47.281Z,70.05
2018-11-13T14:19:17.316Z,69.99
2018-11-13T14:21:48.625Z,70.42
2018-11-13T14:24:18.197Z,70.61
2018-11-13T14:26:47.923Z,70.83
2018-11-13T14:29:17.551Z,71.12
2018-11-13T14:31:49.982Z,72.41
2018-11-13T14:34:19.735Z,73.00
2018-11-13T14:36:50.357Z,72.64
2018-11-13T14:39:20.952Z,73.53
2018-11-13T14:41:52.523Z,73.79
2018-11-13T14:44:22.282Z,74.09
2018-11-13T14:46:51.871Z,75.70
2018-11-13T14:49:22.623Z,75.66
2018-11-13T14:51:52.210Z,77.00
2018-11-13T14:54:21.823Z,77.32
2018-11-13T14:56:51.401Z,77.83
2018-11-13T14:59:21.489Z,78.91
2018-11-13T15:01:51.052Z,79.46
2018-11-13T15:04:20.590Z,80.35
2018-11-13T15:06:49.995Z,79.72
2018-11-13T15:09:19.565Z,82.08
2018-11-13T15:11:49.338Z,81.29
2018-11-13T15:14:19.217Z,82.17
2018-11-13T15:16:48.845Z,82.06
2018-11-13T15:19:18.940Z,82.99
2018-11-13T15:21:48.701Z,83.78
2018-11-13T15:24:18.544Z,84.48
2018-11-13T15:26:48.195Z,84.82
2018-11-13T15:29:18.303Z,85.07
2018-11-13T15:31:48.048Z,86.17
2018-11-13T15:34:17.848Z,86.25
2018-11-13T15:36:47.453Z,86.17
2018-11-13T15:39:17.009Z,86.28
2018-11-13T15:41:46.397Z,86.76
2018-11-13T15:44:16.248Z,87.04
2018-11-13T15:46:45.837Z,87.27
2018-11-13T15:49:16.549Z,87.57
2018-11-13T15:51:47.052Z,87.56
2018-11-13T15:54:16.550Z,87.67
2018-11-13T15:56:46.137Z,87.74
2018-11-13T15:59:15.909Z,88.54
2018-11-13T16:01:45.951Z,88.07
2018-11-13T16:04:21.380Z,88.32
2018-11-13T16:06:51.101Z,88.38
2018-11-13T16:09:20.777Z,88.45
2018-11-13T16:12:00.109Z,88.58
2018-11-13T16:17:29.057Z,89.41
2018-11-13T16:20:00.246Z,89.32
2018-11-13T16:22:30.926Z,89.51
2018-11-13T16:25:03.427Z,89.50
2018-11-13T16:27:33.166Z,89.66
2018-11-13T16:30:03.879Z,89.75
2018-11-13T16:32:33.456Z,89.95
2018-11-13T16:35:02.847Z,89.85
2018-11-13T16:37:35.743Z,90.00
2018-11-13T16:40:16.224Z,90.81
2018-11-13T16:43:03.574Z,90.45
2018-11-13T16:45:34.177Z,90.60
2018-11-13T16:48:05.317Z,90.97
2018-11-13T16:50:42.566Z,90.79
2018-11-13T16:53:12.244Z,90.95
2018-11-13T16:55:46.530Z,90.98
2018-11-13T16:58:16.868Z,91.02
2018-11-13T17:00:56.236Z,90.86
2018-11-13T17:03:26.023Z,91.32
2018-11-13T17:06:07.777Z,91.43
2018-11-13T17:08:37.286Z,91.32
2018-11-13T17:11:06.888Z,91.82
2018-11-13T17:13:36.385Z,91.50
2018-11-13T17:16:07.424Z,91.41
2018-11-13T17:18:36.956Z,91.06
2018-11-13T17:21:06.467Z,91.40
2018-11-13T17:23:43.788Z,91.26
2018-11-13T17:26:13.344Z,91.17
2018-11-13T17:28:44.387Z,91.55
2018-11-13T17:31:13.890Z,91.76
2018-11-13T17:33:43.472Z,91.50
2018-11-13T17:36:21.084Z,91.61
2018-11-13T17:38:50.609Z,91.82
2018-11-13T17:41:20.227Z,91.86
2018-11-13T17:43:50.005Z,91.73
2018-11-13T17:46:19.653Z,92.15
2018-11-13T17:48:49.182Z,92.31
2018-11-13T17:51:18.624Z,92.07
2018-11-13T17:53:51.775Z,91.81
2018-11-13T17:56:21.107Z,92.17
2018-11-13T17:58:50.736Z,92.19
2018-11-13T18:04:11.622Z,92.01
2018-11-13T18:06:41.488Z,92.53
2018-11-13T18:09:13.613Z,92.28
2018-11-13T18:11:44.103Z,92.42
2018-11-13T18:14:14.058Z,92.23
2018-11-13T18:16:46.537Z,92.44
2018-11-13T18:19:17.606Z,92.46
2018-11-13T18:21:49.951Z,92.52
2018-11-13T18:24:26.942Z,92.56
2018-11-13T18:27:13.200Z,92.28
2018-11-13T18:29:43.137Z,91.82
2018-11-13T18:32:12.854Z,91.39
2018-11-13T18:34:53.664Z,91.15
2018-11-13T18:37:35.101Z,91.36
2018-11-13T18:40:15.773Z,91.64
2018-11-13T18:42:48.936Z,91.14
2018-11-13T18:45:22.592Z,91.59
2018-11-13T18:47:52.446Z,92.18
2018-11-13T18:50:29.248Z,92.61
2018-11-13T18:52:58.816Z,92.96
2018-11-13T18:55:28.572Z,92.26
2018-11-13T18:57:58.821Z,91.83
2018-11-13T19:00:33.642Z,91.81
2018-11-13T19:03:05.535Z,91.67
2018-11-13T19:08:45.291Z,91.68
2018-11-13T19:11:14.909Z,92.12
2018-11-13T19:13:48.150Z,91.48
2018-11-13T19:16:18.990Z,91.63
2018-11-13T19:18:54.547Z,91.04
2018-11-13T19:21:25.349Z,91.43
2018-11-13T19:24:00.118Z,91.28
2018-11-13T19:26:31.289Z,92.17
2018-11-13T19:29:02.749Z,92.42
2018-11-13T19:31:34.809Z,92.16
2018-11-13T19:34:05.873Z,92.79
2018-11-13T19:36:35.786Z,92.21
2018-11-13T19:39:08.810Z,92.40
2018-11-13T19:41:38.629Z,91.77
2018-11-13T19:44:08.508Z,92.33
2018-11-13T19:46:41.648Z,91.85
2018-11-13T19:49:11.792Z,91.67
2018-11-13T19:51:42.302Z,91.63
2018-11-13T19:54:12.243Z,91.41
2018-11-13T19:56:44.388Z,91.66
2018-11-13T19:59:15.691Z,91.31
2018-11-13T20:01:47.430Z,91.48
2018-11-13T20:04:22.730Z,91.55
2018-11-13T20:06:53.707Z,92.35
2018-11-13T20:09:24.057Z,92.53
2018-11-13T20:11:56.322Z,92.51
2018-11-13T20:14:32.009Z,92.86
2018-11-13T20:17:02.491Z,93.11
2018-11-13T20:19:32.556Z,93.44
2018-11-13T20:22:12.727Z,93.89
2018-11-13T20:24:46.322Z,93.87
2018-11-13T20:27:34.365Z,94.14
2018-11-13T20:30:10.755Z,93.80
2018-11-13T20:32:43.558Z,93.46
2018-11-13T20:35:15.475Z,94.00
2018-11-13T20:37:47.496Z,92.89
2018-11-13T20:40:24.041Z,92.46
2018-11-13T20:43:06.954Z,91.95
2018-11-13T20:45:38.784Z,91.03
2018-11-13T20:48:08.709Z,91.24
2018-11-13T20:50:42.491Z,91.38
2018-11-13T20:53:17.725Z,91.80
2018-11-13T20:55:47.400Z,91.75
2018-11-13T20:58:17.159Z,91.64
2018-11-13T21:00:47.914Z,92.12
2018-11-13T21:03:30.756Z,91.63
2018-11-13T21:06:01.516Z,91.05
2018-11-13T21:08:31.785Z,91.22
2018-11-13T21:11:09.291Z,91.24
2018-11-13T21:13:38.758Z,91.26
2018-11-13T21:16:14.862Z,92.04
2018-11-13T21:18:44.653Z,92.77
2018-11-13T21:21:15.380Z,92.69
2018-11-13T21:23:46.417Z,92.78
2018-11-13T21:26:22.883Z,93.08
2018-11-13T21:28:52.915Z,92.70
2018-11-13T21:31:22.754Z,92.34
2018-11-13T21:34:02.760Z,92.60
2018-11-13T21:36:44.402Z,92.07
2018-11-13T21:39:21.826Z,91.87
2018-11-13T21:41:58.475Z,91.49
2018-11-13T21:44:28.353Z,91.25
2018-11-13T21:47:00.146Z,91.11
2018-11-13T21:49:29.694Z,90.80
2018-11-13T21:51:59.620Z,91.16
2018-11-13T21:54:30.375Z,91.13
2018-11-13T21:57:00.139Z,91.26
2018-11-13T21:59:31.222Z,91.60
2018-11-13T22:02:08.645Z,92.51
2018-11-13T22:04:38.334Z,92.04
2018-11-13T22:07:07.792Z,92.43
2018-11-13T22:09:37.379Z,92.19
2018-11-13T22:12:12.968Z,91.98
2018-11-13T22:14:44.557Z,91.74
2018-11-13T22:17:16.534Z,92.67
2018-11-13T22:19:45.974Z,93.01
2018-11-13T22:22:18.759Z,93.53
2018-11-13T22:24:53.709Z,93.64
2018-11-13T22:27:24.158Z,93.70
2018-11-13T22:29:54.114Z,93.78
2018-11-13T22:32:23.559Z,93.69
2018-11-13T22:34:55.478Z,93.90
2018-11-13T22:37:25.306Z,94.46
2018-11-13T22:39:55.464Z,94.24
2018-11-13T22:42:24.692Z,94.62
2018-11-13T22:44:54.650Z,94.93
2018-11-13T22:47:25.230Z,95.01
2018-11-13T22:49:55.083Z,94.62
2018-11-13T22:52:24.856Z,94.93
2018-11-13T22:54:56.536Z,94.93
2018-11-13T22:57:34.055Z,95.32
2018-11-13T23:00:03.871Z,94.82
2018-11-13T23:02:33.124Z,94.98
2018-11-13T23:05:03.921Z,94.98
2018-11-13T23:07:33.198Z,94.72
2018-11-13T23:10:11.095Z,94.81
2018-11-13T23:12:41.500Z,94.98
2018-11-13T23:15:14.957Z,94.89
2018-11-13T23:17:45.463Z,95.11
2018-11-13T23:20:17.649Z,94.79
2018-11-13T23:22:48.212Z,95.21
2018-11-13T23:25:20.101Z,95.00
2018-11-13T23:28:01.616Z,94.85
2018-11-13T23:30:33.526Z,94.97
2018-11-13T23:33:09.563Z,94.88
2018-11-13T23:35:39.204Z,95.10
2018-11-13T23:38:08.949Z,94.81
2018-11-13T23:40:45.447Z,94.84
2018-11-13T23:43:20.843Z,94.94
2018-11-13T23:46:02.379Z,95.07
2018-11-13T23:48:32.892Z,94.76
2018-11-13T23:51:08.385Z,95.16
2018-11-13T23:53:41.880Z,94.63
2018-11-13T23:56:12.502Z,94.76
2018-11-13T23:58:43.080Z,94.85
